createdAt,value
2023-03-16T00:00:35.351Z,60.13
2023-03-16T00:03:03.861Z,59.96
2023-03-16T00:05:33.790Z,59.81
2023-03-16T00:08:02.217Z,59.75
2023-03-16T00:10:31.000Z,59.78
2023-03-16T00:12:59.453Z,59.58
2023-03-16T00:15:27.940Z,58.82
2023-03-16T00:17:56.462Z,58.61
2023-03-16T00:20:25.107Z,59.06
2023-03-16T00:22:55.090Z,59.78
2023-03-16T00:25:24.443Z,60.11
2023-03-16T00:27:52.877Z,60.91
2023-03-16T00:30:21.443Z,61.11
2023-03-16T00:32:49.803Z,60.90
2023-03-16T00:35:19.188Z,60.41
2023-03-16T00:37:47.563Z,60.07
2023-03-16T00:40:17.832Z,60.37
2023-03-16T00:42:46.400Z,59.97
2023-03-16T00:45:14.821Z,59.44
2023-03-16T00:47:43.591Z,58.66
2023-03-16T00:50:12.882Z,58.78
2023-03-16T00:52:42.368Z,58.92
2023-03-16T00:55:11.362Z,59.46
2023-03-16T00:57:41.775Z,58.73
2023-03-16T01:00:16.757Z,59.02
2023-03-16T01:02:46.647Z,58.81
2023-03-16T01:05:16.059Z,59.14
2023-03-16T01:07:45.376Z,58.57
2023-03-16T01:10:14.643Z,59.30
2023-03-16T01:12:45.455Z,59.05
2023-03-16T01:15:14.880Z,58.99
2023-03-16T01:17:43.181Z,59.72
2023-03-16T01:20:15.117Z,60.02
2023-03-16T01:22:43.618Z,60.58
2023-03-16T01:25:13.438Z,61.12
2023-03-16T01:27:44.493Z,61.61
2023-03-16T01:30:14.223Z,61.92
2023-03-16T01:32:43.579Z,61.77
2023-03-16T01:35:14.800Z,62.49
2023-03-16T01:37:43.301Z,61.83
2023-03-16T01:40:17.728Z,61.26
2023-03-16T01:42:50.542Z,60.82
2023-03-16T01:46:10.987Z,60.37
2023-03-16T01:48:46.424Z,60.49
2023-03-16T01:51:21.226Z,60.98
2023-03-16T01:53:54.810Z,60.55
2023-03-16T01:56:28.608Z,59.68
2023-03-16T01:59:01.735Z,59.52
2023-03-16T02:01:31.072Z,59.64
2023-03-16T02:04:08.769Z,59.70
2023-03-16T02:06:39.284Z,59.95
2023-03-16T02:09:09.011Z,59.59
2023-03-16T02:11:38.299Z,59.42
2023-03-16T02:14:14.269Z,59.06
2023-03-16T02:16:44.050Z,58.88
2023-03-16T02:19:21.255Z,58.93
2023-03-16T02:21:57.360Z,59.37
2023-03-16T02:24:25.946Z,59.73
2023-03-16T02:26:58.806Z,59.25
2023-03-16T02:29:57.888Z,59.18
2023-03-16T02:32:30.931Z,58.72
2023-03-16T02:35:01.840Z,59.20
2023-03-16T02:37:34.034Z,58.67
2023-03-16T02:40:05.806Z,58.78
2023-03-16T02:42:34.797Z,58.56
2023-03-16T02:45:06.597Z,58.82
2023-03-16T02:47:45.874Z,58.91
2023-03-16T02:50:15.056Z,59.56
2023-03-16T02:52:43.447Z,60.16
2023-03-16T02:55:12.346Z,60.70
2023-03-16T02:57:41.063Z,60.48
2023-03-16T03:00:18.492Z,60.44
2023-03-16T03:02:50.402Z,60.68
2023-03-16T03:05:18.906Z,60.85
2023-03-16T03:07:47.424Z,59.82
2023-03-16T03:10:15.874Z,57.68
2023-03-16T03:12:44.465Z,59.39
2023-03-16T03:15:13.288Z,59.24
2023-03-16T03:17:51.953Z,59.83
2023-03-16T03:20:21.750Z,60.76
2023-03-16T03:22:52.904Z,60.71
2023-03-16T03:25:22.564Z,61.12
2023-03-16T03:27:54.824Z,60.83
2023-03-16T03:30:26.185Z,61.36
2023-03-16T03:32:56.284Z,61.43
2023-03-16T03:35:24.891Z,62.28
2023-03-16T03:37:53.415Z,62.38
2023-03-16T03:40:22.716Z,61.03
2023-03-16T03:42:57.894Z,61.60
2023-03-16T03:45:27.358Z,60.49
2023-03-16T03:47:57.345Z,60.42
2023-03-16T03:50:26.580Z,60.38
2023-03-16T03:53:09.276Z,60.08
2023-03-16T03:55:50.960Z,60.33
2023-03-16T03:58:19.501Z,60.71
2023-03-16T04:00:48.110Z,61.97
2023-03-16T04:03:17.984Z,62.03
2023-03-16T04:05:47.291Z,62.20
2023-03-16T04:08:16.042Z,63.05
2023-03-16T04:10:44.831Z,62.63
2023-03-16T04:13:13.147Z,62.08
2023-03-16T04:15:41.574Z,60.89
2023-03-16T04:18:19.664Z,61.12
2023-03-16T04:20:48.444Z,61.50
2023-03-16T04:23:20.069Z,61.52
2023-03-16T04:25:50.582Z,61.50
2023-03-16T04:28:20.898Z,61.05
2023-03-16T04:30:54.664Z,61.38
2023-03-16T04:33:30.448Z,61.50
2023-03-16T04:35:59.072Z,62.52
2023-03-16T04:38:28.318Z,63.22
2023-03-16T04:40:59.901Z,63.80
2023-03-16T04:43:34.624Z,64.21
2023-03-16T04:46:10.356Z,64.37
2023-03-16T04:48:40.696Z,64.17
2023-03-16T04:51:10.333Z,63.54
2023-03-16T04:53:43.128Z,63.22
2023-03-16T04:56:19.525Z,63.47
2023-03-16T04:58:53.821Z,64.38
2023-03-16T05:01:26.346Z,64.54
2023-03-16T05:04:00.382Z,64.09
2023-03-16T05:06:31.330Z,64.46
2023-03-16T05:09:02.150Z,64.37
2023-03-16T05:11:31.564Z,64.19
2023-03-16T05:14:03.487Z,64.27
2023-03-16T05:16:34.954Z,64.25
2023-03-16T05:19:05.609Z,63.98
2023-03-16T05:21:37.972Z,63.13
2023-03-16T05:24:10.183Z,63.29
2023-03-16T05:26:38.738Z,63.54
2023-03-16T05:29:11.232Z,64.18
2023-03-16T05:31:39.744Z,64.66
2023-03-16T05:34:15.557Z,65.07
2023-03-16T05:36:45.203Z,64.84
2023-03-16T05:39:17.134Z,64.70
2023-03-16T05:41:49.180Z,64.71
2023-03-16T05:44:45.009Z,64.14
2023-03-16T05:47:43.734Z,65.14
2023-03-16T05:50:17.097Z,65.28
2023-03-16T05:52:46.902Z,64.79
2023-03-16T05:55:21.604Z,64.95
2023-03-16T05:57:56.491Z,64.00
2023-03-16T06:00:27.882Z,63.99
2023-03-16T06:03:07.639Z,63.98
2023-03-16T06:05:39.391Z,64.17
2023-03-16T06:08:09.300Z,64.03
2023-03-16T06:10:39.555Z,64.47
2023-03-16T06:13:08.139Z,64.34
2023-03-16T06:15:36.512Z,64.76
2023-03-16T06:18:05.267Z,64.92
2023-03-16T06:20:33.664Z,64.58
2023-03-16T06:23:04.602Z,65.11
2023-03-16T06:25:33.823Z,64.95
2023-03-16T06:28:02.751Z,65.25
2023-03-16T06:30:31.344Z,65.66
2023-03-16T06:33:00.524Z,65.81
2023-03-16T06:35:29.199Z,65.31
2023-03-16T06:38:13.517Z,65.78
2023-03-16T06:41:00.727Z,65.17
2023-03-16T06:43:29.790Z,65.37
2023-03-16T06:45:59.137Z,66.10
2023-03-16T06:48:27.711Z,65.65
2023-03-16T06:50:56.209Z,65.69
2023-03-16T06:53:30.024Z,64.40
2023-03-16T06:55:59.432Z,64.64
2023-03-16T06:58:29.345Z,64.50
2023-03-16T07:00:57.882Z,64.24
2023-03-16T07:03:26.317Z,64.49
2023-03-16T07:06:01.807Z,64.56
2023-03-16T07:08:31.754Z,63.93
2023-03-16T07:11:00.257Z,63.81
2023-03-16T07:13:28.789Z,63.44
2023-03-16T07:15:57.258Z,62.90
2023-03-16T07:18:27.241Z,62.43
2023-03-16T07:20:56.422Z,61.56
2023-03-16T07:23:27.535Z,61.37
2023-03-16T07:26:04.947Z,59.31
2023-03-16T07:28:35.399Z,58.69
2023-03-16T07:31:05.256Z,57.77
2023-03-16T07:33:39.158Z,57.04
2023-03-16T07:36:11.816Z,55.49
2023-03-16T07:38:46.449Z,54.92
2023-03-16T07:41:16.716Z,53.99
2023-03-16T07:43:45.495Z,53.50
2023-03-16T07:46:16.687Z,52.06
2023-03-16T07:48:46.613Z,51.17
2023-03-16T07:51:15.800Z,51.17
2023-03-16T07:53:49.017Z,50.39
2023-03-16T07:56:23.409Z,49.17
2023-03-16T07:58:55.548Z,48.85
2023-03-16T08:01:24.712Z,49.34
2023-03-16T08:03:53.691Z,49.22
2023-03-16T08:06:22.676Z,47.57
2023-03-16T08:08:51.476Z,47.81
2023-03-16T08:11:41.791Z,45.87
2023-03-16T08:14:10.789Z,46.04
2023-03-16T08:16:56.915Z,45.76
2023-03-16T08:19:27.575Z,44.42
2023-03-16T08:22:01.711Z,44.34
2023-03-16T08:24:37.370Z,44.68
2023-03-16T08:27:09.432Z,45.17
2023-03-16T08:29:40.974Z,43.68
2023-03-16T08:32:14.619Z,43.08
2023-03-16T08:34:46.174Z,43.85
2023-03-16T08:37:16.463Z,44.26
2023-03-16T08:39:46.707Z,44.22
2023-03-16T08:42:20.029Z,42.20
2023-03-16T08:44:55.574Z,42.53
2023-03-16T08:47:25.962Z,42.92
2023-03-16T08:49:56.004Z,41.92
2023-03-16T08:52:26.144Z,42.29
2023-03-16T08:55:02.944Z,42.51
2023-03-16T08:57:35.254Z,42.92
2023-03-16T09:00:09.683Z,42.33
2023-03-16T09:02:38.881Z,40.64
2023-03-16T09:05:08.997Z,41.06
2023-03-16T09:07:37.478Z,40.45
2023-03-16T09:10:06.976Z,40.14
2023-03-16T09:12:39.113Z,39.96
2023-03-16T09:15:10.309Z,38.37
2023-03-16T09:17:39.060Z,39.66
2023-03-16T09:20:21.859Z,39.05
2023-03-16T09:22:51.084Z,38.39
2023-03-16T09:25:20.121Z,39.21
2023-03-16T09:27:49.987Z,39.52
2023-03-16T09:30:19.053Z,40.36
2023-03-16T09:32:49.308Z,38.29
2023-03-16T09:35:18.074Z,39.43
2023-03-16T09:38:04.723Z,38.52
2023-03-16T09:40:38.383Z,39.89
2023-03-16T09:43:25.076Z,39.12
2023-03-16T09:46:05.676Z,39.03
2023-03-16T09:48:36.964Z,39.67
2023-03-16T09:51:08.493Z,38.67
2023-03-16T09:53:40.001Z,39.37
2023-03-16T09:56:12.409Z,39.77
2023-03-16T09:58:42.415Z,39.57
2023-03-16T10:01:19.557Z,39.78
2023-03-16T10:04:06.841Z,40.19
2023-03-16T10:06:40.546Z,39.05
2023-03-16T10:09:23.650Z,40.83
2023-03-16T10:11:56.173Z,42.07
2023-03-16T10:14:31.825Z,42.65
2023-03-16T10:17:05.226Z,42.80
2023-03-16T10:19:41.482Z,42.59
2023-03-16T10:22:19.934Z,43.32
2023-03-16T10:24:59.251Z,44.08
2023-03-16T10:27:31.652Z,44.52
2023-03-16T10:30:03.266Z,45.48
2023-03-16T10:32:34.773Z,46.03
2023-03-16T10:35:07.263Z,45.06
2023-03-16T10:37:37.533Z,44.39
2023-03-16T10:40:12.570Z,45.85
2023-03-16T10:42:41.677Z,45.10
2023-03-16T10:45:24.232Z,43.32
2023-03-16T10:47:52.786Z,42.57
2023-03-16T10:50:27.920Z,43.05
2023-03-16T10:52:58.265Z,42.13
2023-03-16T10:55:30.777Z,42.68
2023-03-16T10:57:59.860Z,42.24
2023-03-16T11:00:31.543Z,41.65
2023-03-16T11:03:02.670Z,41.85
2023-03-16T11:05:35.087Z,40.63
2023-03-16T11:08:10.795Z,41.13
2023-03-16T11:10:54.573Z,37.92
2023-03-16T11:13:24.837Z,37.57
2023-03-16T11:16:01.815Z,37.49
2023-03-16T11:18:32.497Z,38.48
2023-03-16T11:21:07.831Z,38.72
2023-03-16T11:23:42.360Z,34.39
2023-03-16T11:26:20.117Z,34.51
2023-03-16T11:28:56.520Z,35.11
2023-03-16T11:31:39.430Z,35.67
2023-03-16T11:34:16.097Z,35.94
2023-03-16T11:36:51.605Z,35.89
2023-03-16T11:39:33.001Z,35.46
2023-03-16T11:42:25.375Z,35.68
2023-03-16T11:45:00.553Z,36.30
2023-03-16T11:47:56.854Z,35.22
2023-03-16T11:50:30.705Z,35.13
2023-03-16T11:53:05.382Z,35.38
2023-03-16T11:55:43.483Z,34.67
2023-03-16T11:58:25.979Z,32.92
2023-03-16T12:01:03.057Z,33.32
2023-03-16T12:03:46.904Z,33.48
2023-03-16T12:06:25.682Z,33.84
2023-03-16T12:09:37.970Z,33.70
2023-03-16T12:12:21.534Z,32.51
2023-03-16T12:15:03.796Z,33.17
2023-03-16T12:17:37.604Z,33.69
2023-03-16T12:20:16.200Z,33.28
2023-03-16T12:22:47.541Z,33.50
2023-03-16T12:25:22.448Z,32.96
2023-03-16T12:27:54.590Z,30.89
2023-03-16T12:30:35.923Z,30.74
2023-03-16T12:33:10.663Z,31.29
2023-03-16T12:35:48.099Z,31.75
2023-03-16T12:38:38.589Z,31.96
2023-03-16T12:41:20.956Z,32.85
2023-03-16T12:44:03.100Z,32.94
2023-03-16T12:46:40.830Z,31.48
2023-03-16T12:49:10.650Z,32.47
2023-03-16T12:51:42.698Z,32.75
2023-03-16T12:54:20.916Z,32.28
2023-03-16T12:56:51.875Z,32.60
2023-03-16T12:59:22.862Z,32.02
2023-03-16T13:01:54.815Z,31.95
2023-03-16T13:04:32.562Z,31.34
2023-03-16T13:07:06.381Z,31.08
2023-03-16T13:09:37.726Z,30.75
2023-03-16T13:12:06.805Z,30.46
2023-03-16T13:14:40.649Z,29.81
2023-03-16T13:17:25.263Z,30.25
2023-03-16T13:20:02.419Z,29.47
2023-03-16T13:22:44.010Z,29.32
2023-03-16T13:25:22.622Z,30.51
2023-03-16T13:27:55.632Z,31.05
2023-03-16T13:30:29.057Z,30.53
2023-03-16T13:33:02.055Z,28.69
2023-03-16T13:35:33.116Z,30.49
2023-03-16T13:38:06.922Z,31.68
2023-03-16T13:40:38.218Z,30.75
2023-03-16T13:43:06.892Z,30.37
2023-03-16T13:45:39.376Z,30.86
2023-03-16T13:48:07.837Z,31.13
2023-03-16T13:50:38.744Z,31.05
2023-03-16T13:53:15.836Z,30.39
2023-03-16T13:55:48.170Z,29.32
2023-03-16T13:58:23.695Z,29.33
2023-03-16T14:00:57.329Z,29.71
2023-03-16T14:03:34.107Z,30.17
2023-03-16T14:06:03.551Z,30.39
2023-03-16T14:08:34.161Z,30.68
2023-03-16T14:11:04.017Z,29.85
2023-03-16T14:13:39.464Z,30.45
2023-03-16T14:16:14.634Z,30.83
2023-03-16T14:18:46.141Z,31.11
2023-03-16T14:21:18.089Z,32.23
2023-03-16T14:23:53.089Z,31.76
2023-03-16T14:26:24.597Z,32.34
2023-03-16T14:28:58.675Z,32.29
2023-03-16T14:31:38.401Z,31.90
2023-03-16T14:34:20.131Z,31.16
2023-03-16T14:36:48.615Z,32.28
2023-03-16T14:39:22.339Z,32.68
2023-03-16T14:41:52.133Z,31.39
2023-03-16T14:44:23.541Z,31.53
2023-03-16T14:46:54.284Z,31.80
2023-03-16T14:49:25.815Z,31.28
2023-03-16T14:51:57.057Z,30.86
2023-03-16T14:54:29.186Z,31.75
2023-03-16T14:57:02.088Z,32.65
2023-03-16T14:59:30.782Z,33.36
2023-03-16T15:02:00.098Z,31.91
2023-03-16T15:04:32.345Z,32.56
2023-03-16T15:07:02.082Z,33.01
2023-03-16T15:09:37.253Z,33.19
2023-03-16T15:12:06.394Z,33.22
2023-03-16T15:14:52.380Z,33.43
2023-03-16T15:17:20.756Z,33.63
2023-03-16T15:19:50.605Z,32.65
2023-03-16T15:22:24.464Z,32.31
2023-03-16T15:24:54.744Z,32.76
2023-03-16T15:27:26.530Z,33.41
2023-03-16T15:29:55.046Z,34.54
2023-03-16T15:32:23.414Z,34.47
2023-03-16T15:34:51.884Z,34.02
2023-03-16T15:37:23.858Z,33.76
2023-03-16T15:39:53.973Z,33.64
2023-03-16T15:42:22.841Z,34.24
2023-03-16T15:44:51.193Z,34.73
2023-03-16T15:47:19.727Z,36.43
2023-03-16T15:49:48.431Z,38.21
2023-03-16T15:52:27.775Z,39.80
2023-03-16T15:55:01.694Z,40.31
2023-03-16T15:57:30.308Z,40.59
2023-03-16T16:00:00.365Z,40.80
2023-03-16T16:02:31.388Z,40.74
2023-03-16T16:05:01.487Z,41.91
2023-03-16T16:07:30.118Z,42.79
2023-03-16T16:10:00.029Z,43.27
2023-03-16T16:12:32.686Z,43.69
2023-03-16T16:15:01.814Z,44.43
2023-03-16T16:17:47.970Z,45.06
2023-03-16T16:20:24.764Z,45.36
2023-03-16T16:22:54.270Z,45.65
2023-03-16T16:25:27.810Z,46.12
2023-03-16T16:27:56.582Z,46.44
2023-03-16T16:30:29.162Z,46.85
2023-03-16T16:32:58.929Z,47.20
2023-03-16T16:35:29.663Z,47.69
2023-03-16T16:37:58.313Z,47.96
2023-03-16T16:40:38.440Z,47.92
2023-03-16T16:43:08.421Z,48.47
2023-03-16T16:45:37.046Z,48.96
2023-03-16T16:48:23.367Z,49.04
2023-03-16T16:50:51.819Z,48.99
2023-03-16T16:53:21.799Z,49.19
2023-03-16T16:55:51.793Z,49.55
2023-03-16T16:58:24.639Z,49.81
2023-03-16T17:00:56.112Z,49.83
2023-03-16T17:03:27.177Z,50.15
2023-03-16T17:05:58.763Z,50.27
2023-03-16T17:08:27.619Z,50.80
2023-03-16T17:10:57.607Z,51.14
2023-03-16T17:13:30.061Z,51.42
2023-03-16T17:15:58.941Z,52.07
2023-03-16T17:18:27.318Z,52.07
2023-03-16T17:20:57.151Z,52.21
2023-03-16T17:23:29.802Z,52.34
2023-03-16T17:26:02.013Z,52.59
2023-03-16T17:28:33.329Z,53.01
2023-03-16T17:31:02.009Z,53.04
2023-03-16T17:33:31.059Z,53.41
2023-03-16T17:35:59.658Z,53.50
2023-03-16T17:38:28.069Z,53.90
2023-03-16T17:40:57.137Z,54.07
2023-03-16T17:43:27.298Z,54.06
2023-03-16T17:45:56.437Z,54.43
2023-03-16T17:48:25.594Z,54.69
2023-03-16T17:50:54.416Z,54.22
2023-03-16T17:53:23.200Z,54.75
2023-03-16T17:55:51.602Z,54.78
2023-03-16T17:58:28.262Z,55.33
2023-03-16T18:00:57.509Z,55.52
2023-03-16T18:03:30.402Z,55.79
2023-03-16T18:05:59.105Z,56.20
2023-03-16T18:08:29.468Z,55.86
2023-03-16T18:11:00.837Z,56.16
2023-03-16T18:13:33.471Z,56.38
2023-03-16T18:16:05.196Z,57.33
2023-03-16T18:18:37.875Z,57.11
2023-03-16T18:21:07.030Z,57.01
2023-03-16T18:23:37.138Z,57.18
2023-03-16T18:26:07.162Z,57.07
2023-03-16T18:28:37.020Z,57.73
2023-03-16T18:31:07.909Z,58.16
2023-03-16T18:33:39.683Z,58.63
2023-03-16T18:36:18.959Z,59.23
2023-03-16T18:38:50.690Z,59.42
2023-03-16T18:41:22.788Z,59.63
2023-03-16T18:43:54.490Z,57.87
2023-03-16T18:46:26.277Z,59.49
2023-03-16T18:48:56.994Z,59.51
2023-03-16T18:51:25.828Z,59.88
2023-03-16T18:53:55.121Z,60.11
2023-03-16T18:56:27.275Z,60.46
2023-03-16T18:58:57.672Z,60.36
2023-03-16T19:01:28.324Z,60.65
2023-03-16T19:03:58.449Z,60.63
2023-03-16T19:06:30.555Z,60.98
2023-03-16T19:09:04.275Z,61.08
2023-03-16T19:11:44.234Z,61.31
2023-03-16T19:14:22.819Z,61.60
2023-03-16T19:16:51.703Z,61.79
2023-03-16T19:19:22.060Z,61.91
2023-03-16T19:21:52.165Z,62.04
2023-03-16T19:24:26.729Z,61.70
2023-03-16T19:26:56.114Z,61.80
2023-03-16T19:29:32.515Z,61.94
2023-03-16T19:32:01.408Z,62.24
2023-03-16T19:34:30.504Z,62.08
2023-03-16T19:36:59.393Z,62.11
2023-03-16T19:39:28.001Z,62.41
2023-03-16T19:41:59.521Z,62.55
2023-03-16T19:44:29.871Z,62.90
2023-03-16T19:47:01.308Z,63.26
2023-03-16T19:49:30.785Z,63.59
2023-03-16T19:51:59.168Z,63.61
2023-03-16T19:54:29.430Z,63.76
2023-03-16T19:57:01.298Z,63.97
2023-03-16T19:59:34.805Z,64.64
2023-03-16T20:02:03.615Z,65.37
2023-03-16T20:04:32.342Z,65.75
2023-03-16T20:07:00.785Z,66.18
2023-03-16T20:09:29.113Z,66.25
2023-03-16T20:11:57.596Z,65.89
2023-03-16T20:14:34.459Z,66.23
2023-03-16T20:17:03.047Z,65.76
2023-03-16T20:19:31.538Z,65.85
2023-03-16T20:22:00.134Z,65.35
2023-03-16T20:24:29.069Z,65.78
2023-03-16T20:26:57.832Z,65.40
2023-03-16T20:29:32.533Z,65.65
2023-03-16T20:32:02.505Z,65.76
2023-03-16T20:34:32.722Z,66.10
2023-03-16T20:37:02.135Z,66.05
2023-03-16T20:39:30.554Z,66.13
2023-03-16T20:41:59.015Z,67.05
2023-03-16T20:44:30.395Z,67.23
2023-03-16T20:46:58.948Z,66.85
2023-03-16T20:49:34.200Z,67.00
2023-03-16T20:52:02.830Z,66.90
2023-03-16T20:54:31.471Z,66.62
2023-03-16T20:57:00.420Z,66.66
2023-03-16T20:59:30.286Z,66.61
2023-03-16T21:01:58.720Z,66.73
2023-03-16T21:04:30.129Z,66.73
2023-03-16T21:07:00.235Z,66.93
2023-03-16T21:09:31.198Z,67.17
2023-03-16T21:11:59.542Z,67.05
2023-03-16T21:14:27.942Z,67.22
2023-03-16T21:16:56.503Z,67.51
2023-03-16T21:19:25.159Z,67.43
2023-03-16T21:21:53.716Z,67.28
2023-03-16T21:24:23.459Z,66.95
2023-03-16T21:26:52.050Z,67.28
2023-03-16T21:29:23.890Z,67.85
2023-03-16T21:31:52.835Z,67.37
2023-03-16T21:34:25.655Z,67.43
2023-03-16T21:36:54.308Z,66.94
2023-03-16T21:39:25.417Z,67.73
2023-03-16T21:41:54.376Z,67.33
2023-03-16T21:44:22.892Z,67.32
2023-03-16T21:46:51.614Z,67.23
2023-03-16T21:49:20.097Z,66.91
2023-03-16T21:51:50.159Z,67.77
2023-03-16T21:54:19.346Z,67.61
2023-03-16T21:56:50.491Z,67.49
2023-03-16T21:59:19.199Z,67.95
2023-03-16T22:02:00.850Z,67.56
2023-03-16T22:04:30.005Z,67.94
2023-03-16T22:06:58.431Z,68.40
2023-03-16T22:09:30.376Z,68.23
2023-03-16T22:12:00.623Z,68.37
2023-03-16T22:14:29.279Z,68.52
2023-03-16T22:16:57.852Z,68.34
2023-03-16T22:19:27.418Z,68.33
2023-03-16T22:21:57.429Z,67.98
2023-03-16T22:24:28.444Z,68.01
2023-03-16T22:26:57.272Z,68.11
2023-03-16T22:29:28.638Z,67.89
2023-03-16T22:32:01.355Z,68.07
2023-03-16T22:34:33.299Z,67.99
2023-03-16T22:37:02.900Z,68.25
2023-03-16T22:39:35.042Z,68.38
2023-03-16T22:42:04.202Z,68.41
2023-03-16T22:44:34.055Z,68.34
2023-03-16T22:47:02.441Z,68.24
2023-03-16T22:49:30.882Z,68.70
2023-03-16T22:51:59.484Z,68.57
2023-03-16T22:54:30.347Z,68.55
2023-03-16T22:56:58.768Z,68.70
2023-03-16T22:59:28.813Z,69.26
2023-03-16T23:01:58.924Z,68.81
2023-03-16T23:04:32.747Z,68.62
2023-03-16T23:07:01.239Z,68.59
2023-03-16T23:09:29.831Z,68.98
2023-03-16T23:11:59.610Z,68.63
2023-03-16T23:14:32.295Z,68.58
2023-03-16T23:17:03.129Z,68.89
2023-03-16T23:19:34.178Z,69.72
2023-03-16T23:22:05.074Z,69.78
2023-03-16T23:24:33.866Z,70.30
2023-03-16T23:27:02.889Z,70.69
2023-03-16T23:29:31.917Z,70.80
2023-03-16T23:32:00.331Z,70.93
2023-03-16T23:34:30.165Z,71.13
2023-03-16T23:36:58.677Z,71.66
2023-03-16T23:39:28.500Z,72.09
2023-03-16T23:41:57.437Z,72.52
2023-03-16T23:44:28.867Z,72.47
2023-03-16T23:46:57.811Z,73.09
2023-03-16T23:49:31.429Z,73.81
2023-03-16T23:52:02.230Z,73.97
2023-03-16T23:54:32.967Z,74.12
2023-03-16T23:57:01.526Z,74.04
2023-03-16T23:59:29.923Z,74.33
